sensor_id;sensor_type;location;lat;lon;timestamp;pressure;altitude;pressure_sealevel;temperature;humidity
64292;BME280;50628;51.008;13.658;2023-12-20T00:01:47;99345.69;;;5.68;100.00
64292;BME280;50628;51.008;13.658;2023-12-20T00:06:51;99343.91;;;5.69;100.00
64292;BME280;50628;51.008;13.658;2023-12-20T00:11:53;99347.00;;;5.61;100.00
64292;BME280;50628;51.008;13.658;2023-12-20T00:16:54;99330.28;;;5.67;100.00
64292;BME280;50628;51.008;13.658;2023-12-20T00:21:58;99323.25;;;5.56;100.00
64292;BME280;50628;51.008;13.658;2023-12-20T00:27:00;99331.81;;;5.43;100.00
64292;BME280;50628;51.008;13.658;2023-12-20T00:32:01;99327.06;;;5.37;100.00
64292;BME280;50628;51.008;13.658;2023-12-20T00:37:05;99321.91;;;5.37;100.00
64292;BME280;50628;51.008;13.658;2023-12-20T00:42:06;99328.69;;;5.26;100.00
64292;BME280;50628;51.008;13.658;2023-12-20T00:47:08;99339.13;;;5.24;100.00
64292;BME280;50628;51.008;13.658;2023-12-20T00:52:12;99309.47;;;5.17;100.00
64292;BME280;50628;51.008;13.658;2023-12-20T00:57:14;99300.47;;;5.10;100.00
64292;BME280;50628;51.008;13.658;2023-12-20T01:02:15;99314.41;;;5.07;100.00
64292;BME280;50628;51.008;13.658;2023-12-20T01:07:19;99302.25;;;5.09;100.00
64292;BME280;50628;51.008;13.658;2023-12-20T01:12:21;99300.44;;;4.97;100.00
64292;BME280;50628;51.008;13.658;2023-12-20T01:17:23;99287.44;;;4.98;100.00
64292;BME280;50628;51.008;13.658;2023-12-20T01:22:26;99283.66;;;5.04;100.00
64292;BME280;50628;51.008;13.658;2023-12-20T01:27:28;99271.88;;;5.00;100.00
64292;BME280;50628;51.008;13.658;2023-12-20T01:32:31;99282.50;;;4.95;100.00
64292;BME280;50628;51.008;13.658;2023-12-20T01:37:34;99271.44;;;4.93;100.00
64292;BME280;50628;51.008;13.658;2023-12-20T01:42:36;99271.94;;;4.86;100.00
64292;BME280;50628;51.008;13.658;2023-12-20T01:47:38;99267.31;;;4.91;100.00
64292;BME280;50628;51.008;13.658;2023-12-20T01:52:42;99261.53;;;4.87;100.00
64292;BME280;50628;51.008;13.658;2023-12-20T01:57:45;99258.84;;;4.89;100.00
64292;BME280;50628;51.008;13.658;2023-12-20T02:02:48;99261.22;;;4.79;100.00
64292;BME280;50628;51.008;13.658;2023-12-20T02:07:51;99259.66;;;4.76;100.00
64292;BME280;50628;51.008;13.658;2023-12-20T02:12:53;99263.13;;;4.75;100.00
64292;BME280;50628;51.008;13.658;2023-12-20T02:17:55;99247.47;;;4.78;100.00
64292;BME280;50628;51.008;13.658;2023-12-20T02:22:58;99250.78;;;4.81;100.00
64292;BME280;50628;51.008;13.658;2023-12-20T02:28:00;99249.44;;;4.75;100.00
64292;BME280;50628;51.008;13.658;2023-12-20T02:33:03;99246.31;;;4.70;100.00
64292;BME280;50628;51.008;13.658;2023-12-20T02:38:10;99253.84;;;4.73;100.00
64292;BME280;50628;51.008;13.658;2023-12-20T02:43:12;99232.63;;;4.69;100.00
64292;BME280;50628;51.008;13.658;2023-12-20T02:48:14;99232.38;;;4.60;100.00
64292;BME280;50628;51.008;13.658;2023-12-20T02:53:17;99231.25;;;4.64;100.00
64292;BME280;50628;51.008;13.658;2023-12-20T02:58:19;99239.16;;;4.61;100.00
64292;BME280;50628;51.008;13.658;2023-12-20T03:03:21;99228.69;;;4.64;100.00
64292;BME280;50628;51.008;13.658;2023-12-20T03:08:24;99225.34;;;4.49;100.00
64292;BME280;50628;51.008;13.658;2023-12-20T03:13:26;99220.59;;;4.55;100.00
64292;BME280;50628;51.008;13.658;2023-12-20T03:18:28;99224.94;;;4.55;100.00
64292;BME280;50628;51.008;13.658;2023-12-20T03:23:31;99219.00;;;4.40;100.00
64292;BME280;50628;51.008;13.658;2023-12-20T03:28:34;99197.81;;;4.49;100.00
64292;BME280;50628;51.008;13.658;2023-12-20T03:33:37;99207.59;;;4.44;100.00
64292;BME280;50628;51.008;13.658;2023-12-20T03:38:40;99200.69;;;4.45;100.00
64292;BME280;50628;51.008;13.658;2023-12-20T03:43:42;99204.19;;;4.44;100.00
64292;BME280;50628;51.008;13.658;2023-12-20T03:48:44;99203.16;;;4.46;100.00
64292;BME280;50628;51.008;13.658;2023-12-20T03:53:47;99203.56;;;4.53;100.00
64292;BME280;50628;51.008;13.658;2023-12-20T03:58:49;99197.53;;;4.54;100.00
64292;BME280;50628;51.008;13.658;2023-12-20T04:03:50;99211.44;;;4.51;100.00
64292;BME280;50628;51.008;13.658;2023-12-20T04:08:54;99212.88;;;4.55;100.00
64292;BME280;50628;51.008;13.658;2023-12-20T04:13:55;99201.66;;;4.57;100.00
64292;BME280;50628;51.008;13.658;2023-12-20T04:18:57;99211.47;;;4.64;100.00
64292;BME280;50628;51.008;13.658;2023-12-20T04:24:00;99208.25;;;4.61;100.00
64292;BME280;50628;51.008;13.658;2023-12-20T04:29:02;99207.63;;;4.57;100.00
64292;BME280;50628;51.008;13.658;2023-12-20T04:34:04;99212.28;;;4.65;100.00
64292;BME280;50628;51.008;13.658;2023-12-20T04:39:07;99206.31;;;4.64;100.00
64292;BME280;50628;51.008;13.658;2023-12-20T04:44:09;99207.13;;;4.65;100.00
64292;BME280;50628;51.008;13.658;2023-12-20T04:49:11;99194.69;;;4.71;100.00
64292;BME280;50628;51.008;13.658;2023-12-20T04:54:14;99215.06;;;4.62;100.00
64292;BME280;50628;51.008;13.658;2023-12-20T04:59:16;99218.16;;;4.67;100.00
64292;BME280;50628;51.008;13.658;2023-12-20T05:04:18;99217.75;;;4.73;100.00
64292;BME280;50628;51.008;13.658;2023-12-20T05:09:21;99211.50;;;4.77;100.00
64292;BME280;50628;51.008;13.658;2023-12-20T05:14:23;99218.19;;;4.80;100.00
64292;BME280;50628;51.008;13.658;2023-12-20T05:19:25;99213.94;;;4.78;100.00
64292;BME280;50628;51.008;13.658;2023-12-20T05:24:28;99228.22;;;4.84;100.00
64292;BME280;50628;51.008;13.658;2023-12-20T05:29:30;99237.59;;;4.85;100.00
64292;BME280;50628;51.008;13.658;2023-12-20T05:34:32;99238.72;;;4.81;100.00
64292;BME280;50628;51.008;13.658;2023-12-20T05:39:35;99223.25;;;4.81;100.00
64292;BME280;50628;51.008;13.658;2023-12-20T05:44:37;99239.78;;;4.91;100.00
64292;BME280;50628;51.008;13.658;2023-12-20T05:49:39;99240.69;;;4.90;100.00
64292;BME280;50628;51.008;13.658;2023-12-20T05:54:42;99244.31;;;4.88;100.00
64292;BME280;50628;51.008;13.658;2023-12-20T05:59:44;99251.34;;;4.98;100.00
64292;BME280;50628;51.008;13.658;2023-12-20T06:04:45;99264.88;;;5.02;100.00
64292;BME280;50628;51.008;13.658;2023-12-20T06:09:49;99258.03;;;5.01;100.00
64292;BME280;50628;51.008;13.658;2023-12-20T06:14:51;99243.41;;;5.02;100.00
64292;BME280;50628;51.008;13.658;2023-12-20T06:19:53;99261.66;;;4.98;100.00
64292;BME280;50628;51.008;13.658;2023-12-20T06:24:56;99254.75;;;4.99;100.00
64292;BME280;50628;51.008;13.658;2023-12-20T06:29:58;99245.34;;;4.98;100.00
64292;BME280;50628;51.008;13.658;2023-12-20T06:35:00;99272.94;;;5.10;100.00
64292;BME280;50628;51.008;13.658;2023-12-20T06:40:05;99277.66;;;5.16;100.00
64292;BME280;50628;51.008;13.658;2023-12-20T06:45:08;99286.44;;;5.14;100.00
64292;BME280;50628;51.008;13.658;2023-12-20T06:50:10;99293.78;;;5.20;100.00
64292;BME280;50628;51.008;13.658;2023-12-20T06:55:13;99295.66;;;5.18;100.00
64292;BME280;50628;51.008;13.658;2023-12-20T07:00:16;99292.34;;;5.16;100.00
64292;BME280;50628;51.008;13.658;2023-12-20T07:05:20;99311.84;;;5.20;100.00
64292;BME280;50628;51.008;13.658;2023-12-20T07:10:23;99315.25;;;5.20;100.00
64292;BME280;50628;51.008;13.658;2023-12-20T07:15:25;99314.03;;;5.26;100.00
64292;BME280;50628;51.008;13.658;2023-12-20T07:20:27;99307.31;;;5.24;100.00
64292;BME280;50628;51.008;13.658;2023-12-20T07:25:30;99320.34;;;5.22;100.00
64292;BME280;50628;51.008;13.658;2023-12-20T07:30:33;99333.41;;;5.19;100.00
64292;BME280;50628;51.008;13.658;2023-12-20T07:35:34;99315.47;;;5.30;100.00
64292;BME280;50628;51.008;13.658;2023-12-20T07:40:38;99309.59;;;5.28;100.00
64292;BME280;50628;51.008;13.658;2023-12-20T07:45:40;99302.59;;;5.30;100.00
64292;BME280;50628;51.008;13.658;2023-12-20T07:50:42;99309.28;;;5.20;100.00
64292;BME280;50628;51.008;13.658;2023-12-20T07:55:45;99315.34;;;5.19;100.00
64292;BME280;50628;51.008;13.658;2023-12-20T08:00:47;99302.56;;;5.17;100.00
64292;BME280;50628;51.008;13.658;2023-12-20T08:05:49;99310.63;;;5.26;100.00
64292;BME280;50628;51.008;13.658;2023-12-20T08:10:52;99308.47;;;5.19;100.00
64292;BME280;50628;51.008;13.658;2023-12-20T08:15:54;99309.59;;;5.28;100.00
64292;BME280;50628;51.008;13.658;2023-12-20T08:20:56;99315.59;;;5.41;100.00
64292;BME280;50628;51.008;13.658;2023-12-20T08:26:03;99310.94;;;5.34;100.00
64292;BME280;50628;51.008;13.658;2023-12-20T08:31:05;99316.31;;;5.43;100.00
64292;BME280;50628;51.008;13.658;2023-12-20T08:36:07;99291.84;;;5.36;100.00
64292;BME280;50628;51.008;13.658;2023-12-20T08:41:10;99288.88;;;5.42;100.00
64292;BME280;50628;51.008;13.658;2023-12-20T08:46:14;99302.38;;;5.46;100.00
64292;BME280;50628;51.008;13.658;2023-12-20T08:51:16;99309.97;;;5.62;100.00
64292;BME280;50628;51.008;13.658;2023-12-20T08:56:19;99302.81;;;5.78;100.00
64292;BME280;50628;51.008;13.658;2023-12-20T09:01:21;99307.16;;;5.78;100.00
64292;BME280;50628;51.008;13.658;2023-12-20T09:06:23;99304.88;;;5.73;100.00
64292;BME280;50628;51.008;13.658;2023-12-20T09:11:26;99306.94;;;5.81;100.00
64292;BME280;50628;51.008;13.658;2023-12-20T09:16:28;99294.63;;;5.84;100.00
64292;BME280;50628;51.008;13.658;2023-12-20T09:21:31;99312.63;;;5.99;100.00
64292;BME280;50628;51.008;13.658;2023-12-20T09:26:35;99316.75;;;6.14;100.00
64292;BME280;50628;51.008;13.658;2023-12-20T09:31:36;99296.09;;;6.14;100.00
64292;BME280;50628;51.008;13.658;2023-12-20T09:36:38;99297.16;;;5.99;100.00
64292;BME280;50628;51.008;13.658;2023-12-20T09:42:00;99288.56;;;5.98;100.00
64292;BME280;50628;51.008;13.658;2023-12-20T09:47:03;99286.59;;;5.89;100.00
64292;BME280;50628;51.008;13.658;2023-12-20T09:52:07;99280.69;;;5.87;100.00
64292;BME280;50628;51.008;13.658;2023-12-20T09:57:12;99268.84;;;5.97;100.00
64292;BME280;50628;51.008;13.658;2023-12-20T10:02:14;99269.44;;;6.01;100.00
64292;BME280;50628;51.008;13.658;2023-12-20T10:07:17;99282.03;;;5.93;100.00
64292;BME280;50628;51.008;13.658;2023-12-20T10:12:20;99254.75;;;6.14;100.00
64292;BME280;50628;51.008;13.658;2023-12-20T10:17:22;99257.94;;;6.18;100.00
64292;BME280;50628;51.008;13.658;2023-12-20T10:22:24;99239.31;;;6.25;100.00
64292;BME280;50628;51.008;13.658;2023-12-20T10:27:28;99242.22;;;6.45;100.00
64292;BME280;50628;51.008;13.658;2023-12-20T10:32:31;99231.75;;;6.35;100.00
64292;BME280;50628;51.008;13.658;2023-12-20T10:37:35;99224.91;;;6.34;100.00
64292;BME280;50628;51.008;13.658;2023-12-20T10:42:39;99228.88;;;6.51;100.00
64292;BME280;50628;51.008;13.658;2023-12-20T10:47:42;99193.88;;;6.34;100.00
64292;BME280;50628;51.008;13.658;2023-12-20T10:52:45;99201.38;;;6.26;100.00
64292;BME280;50628;51.008;13.658;2023-12-20T10:57:50;99189.28;;;6.50;100.00
64292;BME280;50628;51.008;13.658;2023-12-20T11:02:53;99192.16;;;6.70;100.00
64292;BME280;50628;51.008;13.658;2023-12-20T11:08:01;99180.50;;;6.64;100.00
64292;BME280;50628;51.008;13.658;2023-12-20T11:13:09;99192.53;;;6.77;100.00
64292;BME280;50628;51.008;13.658;2023-12-20T11:18:12;99187.53;;;6.62;100.00
64292;BME280;50628;51.008;13.658;2023-12-20T11:23:14;99167.47;;;6.66;100.00
64292;BME280;50628;51.008;13.658;2023-12-20T11:28:21;99175.31;;;6.53;100.00
64292;BME280;50628;51.008;13.658;2023-12-20T11:33:23;99183.09;;;6.64;100.00
64292;BME280;50628;51.008;13.658;2023-12-20T11:38:26;99189.53;;;6.59;100.00
64292;BME280;50628;51.008;13.658;2023-12-20T11:43:34;99165.44;;;6.58;100.00
64292;BME280;50628;51.008;13.658;2023-12-20T11:48:38;99165.16;;;6.50;100.00
64292;BME280;50628;51.008;13.658;2023-12-20T11:53:41;99152.13;;;6.52;100.00
64292;BME280;50628;51.008;13.658;2023-12-20T11:58:45;99157.88;;;6.79;100.00
64292;BME280;50628;51.008;13.658;2023-12-20T12:03:47;99150.16;;;7.02;100.00
64292;BME280;50628;51.008;13.658;2023-12-20T12:08:48;99139.41;;;6.95;100.00
64292;BME280;50628;51.008;13.658;2023-12-20T12:13:52;99139.66;;;6.92;100.00
64292;BME280;50628;51.008;13.658;2023-12-20T12:18:57;99129.44;;;7.02;100.00
64292;BME280;50628;51.008;13.658;2023-12-20T12:24:09;99106.75;;;7.17;100.00
64292;BME280;50628;51.008;13.658;2023-12-20T12:29:12;99103.59;;;7.24;100.00
64292;BME280;50628;51.008;13.658;2023-12-20T12:34:14;99088.63;;;7.28;100.00
64292;BME280;50628;51.008;13.658;2023-12-20T12:39:17;99100.63;;;7.40;100.00
64292;BME280;50628;51.008;13.658;2023-12-20T12:44:21;99107.81;;;7.25;100.00
64292;BME280;50628;51.008;13.658;2023-12-20T12:49:24;99078.28;;;6.94;100.00
64292;BME280;50628;51.008;13.658;2023-12-20T12:54:26;99069.91;;;7.35;100.00
64292;BME280;50628;51.008;13.658;2023-12-20T12:59:29;99061.06;;;7.49;100.00
64292;BME280;50628;51.008;13.658;2023-12-20T13:04:31;99064.19;;;7.21;100.00
64292;BME280;50628;51.008;13.658;2023-12-20T13:09:33;99062.63;;;7.29;100.00
64292;BME280;50628;51.008;13.658;2023-12-20T13:14:36;99040.66;;;6.90;100.00
64292;BME280;50628;51.008;13.658;2023-12-20T13:19:38;99037.22;;;7.34;100.00
64292;BME280;50628;51.008;13.658;2023-12-20T13:24:40;99030.41;;;7.77;100.00
64292;BME280;50628;51.008;13.658;2023-12-20T13:29:46;99014.41;;;7.61;100.00
64292;BME280;50628;51.008;13.658;2023-12-20T13:34:47;99009.47;;;7.03;100.00
64292;BME280;50628;51.008;13.658;2023-12-20T13:39:50;99018.09;;;7.03;100.00
64292;BME280;50628;51.008;13.658;2023-12-20T13:44:53;99020.09;;;6.88;100.00
64292;BME280;50628;51.008;13.658;2023-12-20T13:49:56;99012.56;;;6.63;100.00
64292;BME280;50628;51.008;13.658;2023-12-20T13:54:58;99007.28;;;6.76;100.00
64292;BME280;50628;51.008;13.658;2023-12-20T14:00:01;98996.44;;;6.59;100.00
64292;BME280;50628;51.008;13.658;2023-12-20T14:05:08;99008.06;;;6.65;100.00
64292;BME280;50628;51.008;13.658;2023-12-20T14:10:11;99001.38;;;6.62;100.00
64292;BME280;50628;51.008;13.658;2023-12-20T14:15:15;98993.59;;;6.62;100.00
64292;BME280;50628;51.008;13.658;2023-12-20T14:20:17;98997.25;;;6.60;100.00
64292;BME280;50628;51.008;13.658;2023-12-20T14:25:18;98993.75;;;6.61;100.00
64292;BME280;50628;51.008;13.658;2023-12-20T14:30:22;98987.50;;;6.52;100.00
64292;BME280;50628;51.008;13.658;2023-12-20T14:35:24;98982.13;;;6.55;100.00
64292;BME280;50628;51.008;13.658;2023-12-20T14:40:26;98984.81;;;6.54;100.00
64292;BME280;50628;51.008;13.658;2023-12-20T14:45:29;98993.84;;;6.48;100.00
64292;BME280;50628;51.008;13.658;2023-12-20T14:50:31;98993.25;;;6.44;100.00
64292;BME280;50628;51.008;13.658;2023-12-20T14:55:32;98996.88;;;6.42;100.00
64292;BME280;50628;51.008;13.658;2023-12-20T15:00:36;99000.03;;;6.34;100.00
64292;BME280;50628;51.008;13.658;2023-12-20T15:05:38;98981.03;;;6.46;100.00
64292;BME280;50628;51.008;13.658;2023-12-20T15:10:41;98978.78;;;6.42;100.00
64292;BME280;50628;51.008;13.658;2023-12-20T15:15:44;98993.59;;;6.40;100.00
64292;BME280;50628;51.008;13.658;2023-12-20T15:20:46;98991.38;;;6.35;100.00
64292;BME280;50628;51.008;13.658;2023-12-20T15:25:48;98972.66;;;6.32;100.00
64292;BME280;50628;51.008;13.658;2023-12-20T15:30:51;98980.75;;;6.27;100.00
64292;BME280;50628;51.008;13.658;2023-12-20T15:35:53;98986.50;;;6.19;100.00
64292;BME280;50628;51.008;13.658;2023-12-20T15:40:55;98984.41;;;6.24;100.00
64292;BME280;50628;51.008;13.658;2023-12-20T15:45:58;98997.94;;;6.28;100.00
64292;BME280;50628;51.008;13.658;2023-12-20T15:51:04;98982.78;;;6.23;100.00
64292;BME280;50628;51.008;13.658;2023-12-20T15:56:06;99012.25;;;6.32;100.00
64292;BME280;50628;51.008;13.658;2023-12-20T16:01:10;99008.03;;;6.31;100.00
64292;BME280;50628;51.008;13.658;2023-12-20T16:06:11;99002.97;;;6.29;100.00
64292;BME280;50628;51.008;13.658;2023-12-20T16:11:13;99018.22;;;6.21;100.00
64292;BME280;50628;51.008;13.658;2023-12-20T16:16:16;99004.25;;;6.13;100.00
64292;BME280;50628;51.008;13.658;2023-12-20T16:21:18;99014.81;;;6.21;100.00
64292;BME280;50628;51.008;13.658;2023-12-20T16:26:20;99027.50;;;6.13;100.00
64292;BME280;50628;51.008;13.658;2023-12-20T16:31:23;99008.56;;;6.12;100.00
64292;BME280;50628;51.008;13.658;2023-12-20T16:36:27;99017.25;;;6.11;100.00
64292;BME280;50628;51.008;13.658;2023-12-20T16:41:34;99019.47;;;6.04;100.00
64292;BME280;50628;51.008;13.658;2023-12-20T16:46:37;99033.59;;;6.12;100.00
64292;BME280;50628;51.008;13.658;2023-12-20T16:51:39;99031.22;;;6.09;100.00
64292;BME280;50628;51.008;13.658;2023-12-20T16:56:41;99027.59;;;6.11;100.00
64292;BME280;50628;51.008;13.658;2023-12-20T17:01:44;99015.97;;;6.05;100.00
64292;BME280;50628;51.008;13.658;2023-12-20T17:06:46;99027.34;;;6.03;100.00
64292;BME280;50628;51.008;13.658;2023-12-20T17:11:49;99026.53;;;6.02;100.00
64292;BME280;50628;51.008;13.658;2023-12-20T17:16:52;99038.59;;;6.02;100.00
64292;BME280;50628;51.008;13.658;2023-12-20T17:21:54;99027.91;;;5.95;100.00
64292;BME280;50628;51.008;13.658;2023-12-20T17:26:56;99032.31;;;5.93;100.00
64292;BME280;50628;51.008;13.658;2023-12-20T17:31:59;99024.09;;;5.88;100.00
64292;BME280;50628;51.008;13.658;2023-12-20T17:37:01;99031.84;;;5.88;100.00
64292;BME280;50628;51.008;13.658;2023-12-20T17:42:06;99030.16;;;5.87;100.00
64292;BME280;50628;51.008;13.658;2023-12-20T17:47:09;99037.91;;;5.87;100.00
64292;BME280;50628;51.008;13.658;2023-12-20T17:52:11;99024.88;;;5.77;100.00
64292;BME280;50628;51.008;13.658;2023-12-20T17:57:13;99023.34;;;5.75;100.00
64292;BME280;50628;51.008;13.658;2023-12-20T18:02:16;99034.25;;;5.78;100.00
64292;BME280;50628;51.008;13.658;2023-12-20T18:07:18;99037.78;;;5.77;100.00
64292;BME280;50628;51.008;13.658;2023-12-20T18:12:19;99037.28;;;5.72;100.00
64292;BME280;50628;51.008;13.658;2023-12-20T18:17:23;99056.50;;;5.68;100.00
64292;BME280;50628;51.008;13.658;2023-12-20T18:22:25;99051.84;;;5.73;100.00
64292;BME280;50628;51.008;13.658;2023-12-20T18:27:27;99046.78;;;5.72;100.00
64292;BME280;50628;51.008;13.658;2023-12-20T18:32:30;99046.50;;;5.63;100.00
64292;BME280;50628;51.008;13.658;2023-12-20T18:37:33;99059.53;;;5.62;100.00
64292;BME280;50628;51.008;13.658;2023-12-20T18:42:35;99062.84;;;5.51;100.00
64292;BME280;50628;51.008;13.658;2023-12-20T18:47:38;99051.00;;;5.49;100.00
64292;BME280;50628;51.008;13.658;2023-12-20T18:52:40;99048.31;;;5.50;100.00
64292;BME280;50628;51.008;13.658;2023-12-20T18:57:42;99043.31;;;5.60;100.00
64292;BME280;50628;51.008;13.658;2023-12-20T19:02:46;99050.84;;;5.63;100.00
64292;BME280;50628;51.008;13.658;2023-12-20T19:07:48;99046.00;;;5.58;100.00
64292;BME280;50628;51.008;13.658;2023-12-20T19:12:51;99061.00;;;5.53;100.00
64292;BME280;50628;51.008;13.658;2023-12-20T19:17:54;99067.22;;;5.38;100.00
64292;BME280;50628;51.008;13.658;2023-12-20T19:22:56;99067.69;;;5.32;100.00
64292;BME280;50628;51.008;13.658;2023-12-20T19:27:58;99073.38;;;5.24;100.00
64292;BME280;50628;51.008;13.658;2023-12-20T19:33:01;99052.72;;;5.24;100.00
64292;BME280;50628;51.008;13.658;2023-12-20T19:38:03;99049.53;;;5.20;100.00
64292;BME280;50628;51.008;13.658;2023-12-20T19:43:05;99026.41;;;5.19;100.00
64292;BME280;50628;51.008;13.658;2023-12-20T19:48:10;99031.47;;;5.20;100.00
64292;BME280;50628;51.008;13.658;2023-12-20T19:53:12;99007.84;;;5.14;100.00
64292;BME280;50628;51.008;13.658;2023-12-20T19:58:14;99019.69;;;5.16;100.00
64292;BME280;50628;51.008;13.658;2023-12-20T20:03:17;98996.41;;;5.05;100.00
64292;BME280;50628;51.008;13.658;2023-12-20T20:08:20;98999.28;;;5.13;100.00
64292;BME280;50628;51.008;13.658;2023-12-20T20:13:24;99010.22;;;5.17;100.00
64292;BME280;50628;51.008;13.658;2023-12-20T20:18:27;98989.16;;;5.23;100.00
64292;BME280;50628;51.008;13.658;2023-12-20T20:23:29;98976.75;;;5.28;100.00
64292;BME280;50628;51.008;13.658;2023-12-20T20:28:31;98972.22;;;5.32;100.00
64292;BME280;50628;51.008;13.658;2023-12-20T20:33:35;98983.22;;;5.34;100.00
64292;BME280;50628;51.008;13.658;2023-12-20T20:38:37;98951.66;;;5.30;100.00
64292;BME280;50628;51.008;13.658;2023-12-20T20:43:38;98949.81;;;5.32;100.00
64292;BME280;50628;51.008;13.658;2023-12-20T20:48:41;98942.78;;;5.34;100.00
64292;BME280;50628;51.008;13.658;2023-12-20T20:53:43;98941.38;;;5.41;100.00
64292;BME280;50628;51.008;13.658;2023-12-20T20:58:45;98924.75;;;5.46;100.00
64292;BME280;50628;51.008;13.658;2023-12-20T21:03:49;98921.72;;;5.52;100.00
64292;BME280;50628;51.008;13.658;2023-12-20T21:08:51;98939.66;;;5.42;100.00
64292;BME280;50628;51.008;13.658;2023-12-20T21:13:54;98922.06;;;5.47;100.00
64292;BME280;50628;51.008;13.658;2023-12-20T21:18:57;98917.09;;;5.44;100.00
64292;BME280;50628;51.008;13.658;2023-12-20T21:23:59;98906.84;;;5.55;100.00
64292;BME280;50628;51.008;13.658;2023-12-20T21:29:01;98899.91;;;5.56;100.00
64292;BME280;50628;51.008;13.658;2023-12-20T21:34:04;98872.38;;;5.68;100.00
64292;BME280;50628;51.008;13.658;2023-12-20T21:39:07;98869.41;;;5.61;100.00
64292;BME280;50628;51.008;13.658;2023-12-20T21:44:08;98848.06;;;5.59;100.00
64292;BME280;50628;51.008;13.658;2023-12-20T21:49:12;98829.69;;;5.75;100.00
64292;BME280;50628;51.008;13.658;2023-12-20T21:54:13;98844.22;;;5.87;100.00
64292;BME280;50628;51.008;13.658;2023-12-20T21:59:15;98835.22;;;5.93;100.00
64292;BME280;50628;51.008;13.658;2023-12-20T22:04:19;98815.38;;;5.93;100.00
64292;BME280;50628;51.008;13.658;2023-12-20T22:09:20;98794.38;;;5.98;100.00
64292;BME280;50628;51.008;13.658;2023-12-20T22:14:23;98796.97;;;5.98;100.00
64292;BME280;50628;51.008;13.658;2023-12-20T22:19:27;98794.97;;;6.01;100.00
64292;BME280;50628;51.008;13.658;2023-12-20T22:24:29;98790.28;;;5.95;100.00
64292;BME280;50628;51.008;13.658;2023-12-20T22:29:31;98799.22;;;6.02;100.00
64292;BME280;50628;51.008;13.658;2023-12-20T22:34:34;98794.63;;;5.95;100.00
64292;BME280;50628;51.008;13.658;2023-12-20T22:39:36;98774.41;;;5.89;100.00
64292;BME280;50628;51.008;13.658;2023-12-20T22:44:39;98763.84;;;5.80;100.00
64292;BME280;50628;51.008;13.658;2023-12-20T22:49:42;98761.59;;;5.76;100.00
64292;BME280;50628;51.008;13.658;2023-12-20T22:54:44;98732.38;;;5.75;100.00
64292;BME280;50628;51.008;13.658;2023-12-20T22:59:45;98725.81;;;5.71;100.00
64292;BME280;50628;51.008;13.658;2023-12-20T23:04:49;98712.19;;;5.69;100.00
64292;BME280;50628;51.008;13.658;2023-12-20T23:09:51;98700.81;;;5.72;100.00
64292;BME280;50628;51.008;13.658;2023-12-20T23:14:53;98689.41;;;5.85;100.00
64292;BME280;50628;51.008;13.658;2023-12-20T23:19:56;98675.56;;;5.86;100.00
64292;BME280;50628;51.008;13.658;2023-12-20T23:24:58;98678.84;;;5.89;100.00
64292;BME280;50628;51.008;13.658;2023-12-20T23:30:00;98656.56;;;5.88;100.00
64292;BME280;50628;51.008;13.658;2023-12-20T23:35:03;98661.38;;;5.92;100.00
64292;BME280;50628;51.008;13.658;2023-12-20T23:40:06;98648.34;;;5.94;100.00
64292;BME280;50628;51.008;13.658;2023-12-20T23:45:09;98646.75;;;6.14;100.00
64292;BME280;50628;51.008;13.658;2023-12-20T23:50:12;98605.34;;;5.93;100.00
64292;BME280;50628;51.008;13.658;2023-12-20T23:55:14;98626.75;;;5.95;100.00
